LNI110 WIII-OEJN
Flight info
| Callsign | LNI110 |
|---|---|
| Flight time | N/A |
| Altitude | 34000 |
| Route | RIMTI M766 OBDAL/N0483F360 M766 GODAV DCT DEMON R461 MDI M300 LEMAX/N0477F380 M300 LOTAV N569 TOKRA/N0454F280 Y511 ITRUX/N0479F380 Y511 ASMUN G782 VEMEM |
| Aircraft | A339/H-SADE1E2E3GHIJ3J5M1P2RWXY/LB2D1 |
Departure
| Time | 2026-05-01 08:52 |
|---|---|
| Airport | Soekarno-Hatta International Airport (WIII) |
Arrival
| Time | N/A |
|---|---|
| Airport | King Abdulaziz International Airport (OEJN) |
| Time | Latitude | Longitude | Altitude | Speed | Heading |
|---|---|---|---|---|---|
| 2026-05-01 08:13 | -6.12077 | 106.65405 | 44 ft | 0 kts | 173° |
| 2026-05-01 08:36 | -6.12055 | 106.65402 | 43 ft | 4 kts | 174° |
| 2026-05-01 08:36 | -6.12028 | 106.65399 | 42 ft | 4 kts | 176° |
| 2026-05-01 08:37 | -6.12002 | 106.65398 | 43 ft | 4 kts | 184° |
| 2026-05-01 08:37 | -6.11980 | 106.65400 | 41 ft | 2 kts | 207° |
| 2026-05-01 08:37 | -6.11969 | 106.65405 | 41 ft | 2 kts | 225° |
| 2026-05-01 08:37 | -6.11961 | 106.65413 | 41 ft | 2 kts | 237° |
| 2026-05-01 08:38 | -6.11954 | 106.65422 | 40 ft | 2 kts | 243° |
| 2026-05-01 08:38 | -6.11949 | 106.65433 | 44 ft | 2 kts | 246° |
| 2026-05-01 08:44 | -6.11955 | 106.65420 | 44 ft | 3 kts | 247° |
| 2026-05-01 08:44 | -6.11959 | 106.65408 | 42 ft | 2 kts | 249° |
| 2026-05-01 08:44 | -6.11957 | 106.65393 | 44 ft | 2 kts | 281° |
| 2026-05-01 08:45 | -6.11946 | 106.65361 | 44 ft | 8 kts | 291° |
| 2026-05-01 08:45 | -6.11911 | 106.65306 | 44 ft | 11 kts | 305° |
| 2026-05-01 08:45 | -6.11856 | 106.65251 | 44 ft | 12 kts | 326° |
| 2026-05-01 08:45 | -6.11789 | 106.65221 | 44 ft | 7 kts | 335° |
| 2026-05-01 08:46 | -6.11785 | 106.65216 | 44 ft | 1 kts | 319° |
| 2026-05-01 08:46 | -6.11780 | 106.65191 | 44 ft | 7 kts | 279° |
| 2026-05-01 08:46 | -6.11805 | 106.65111 | 45 ft | 15 kts | 248° |
| 2026-05-01 08:46 | -6.11847 | 106.65005 | 45 ft | 17 kts | 248° |
| 2026-05-01 08:47 | -6.11897 | 106.64879 | 45 ft | 22 kts | 248° |
| 2026-05-01 08:47 | -6.11957 | 106.64728 | 45 ft | 24 kts | 248° |
| 2026-05-01 08:47 | -6.12022 | 106.64568 | 44 ft | 25 kts | 248° |
| 2026-05-01 08:47 | -6.12090 | 106.64397 | 45 ft | 27 kts | 248° |
| 2026-05-01 08:48 | -6.12161 | 106.64220 | 43 ft | 28 kts | 248° |
| 2026-05-01 08:48 | -6.12217 | 106.64079 | 44 ft | 19 kts | 248° |
| 2026-05-01 08:48 | -6.12257 | 106.63976 | 45 ft | 11 kts | 250° |
| 2026-05-01 08:48 | -6.12253 | 106.63911 | 45 ft | 5 kts | 303° |
| 2026-05-01 08:49 | -6.12230 | 106.63888 | 46 ft | 5 kts | 322° |
| 2026-05-01 08:49 | -6.12227 | 106.63886 | 46 ft | 0 kts | 322° |
| 2026-05-01 08:49 | -6.12222 | 106.63884 | 46 ft | 3 kts | 328° |
| 2026-05-01 08:49 | -6.12183 | 106.63886 | 47 ft | 7 kts | 11° |
| 2026-05-01 08:50 | -6.12137 | 106.63908 | 47 ft | 8 kts | 25° |
| 2026-05-01 08:50 | -6.12083 | 106.63945 | 46 ft | 11 kts | 46° |
| 2026-05-01 08:50 | -6.12048 | 106.64014 | 46 ft | 8 kts | 69° |
| 2026-05-01 08:50 | -6.12029 | 106.64063 | 46 ft | 7 kts | 68° |
| 2026-05-01 08:51 | -6.12017 | 106.64095 | 46 ft | 7 kts | 69° |
| 2026-05-01 08:51 | -6.11929 | 106.64313 | 45 ft | 69 kts | 68° |
| 2026-05-01 08:51 | -6.11660 | 106.64981 | 49 ft | 134 kts | 68° |
| 2026-05-01 08:51 | -6.11252 | 106.66012 | 50 ft | 181 kts | 68° |
| 2026-05-01 08:52 | -6.10766 | 106.67206 | 582 ft | 185 kts | 63° |
| 2026-05-01 08:52 | -6.10001 | 106.68251 | 1123 ft | 190 kts | 42° |
| 2026-05-01 08:52 | -6.08910 | 106.69063 | 1607 ft | 201 kts | 29° |
| 2026-05-01 08:52 | -6.07632 | 106.69722 | 2044 ft | 214 kts | 25° |
| 2026-05-01 08:53 | -6.06216 | 106.70392 | 2234 ft | 233 kts | 25° |
| 2026-05-01 08:53 | -6.04719 | 106.71150 | 2401 ft | 251 kts | 30° |
| 2026-05-01 08:53 | -6.03192 | 106.72120 | 2585 ft | 266 kts | 34° |
| 2026-05-01 08:53 | -6.01658 | 106.73183 | 3037 ft | 269 kts | 35° |
| 2026-05-01 08:54 | -5.99977 | 106.73989 | 3415 ft | 274 kts | 13° |
| 2026-05-01 08:54 | -5.98087 | 106.74034 | 3846 ft | 277 kts | 348° |
| 2026-05-01 08:54 | -5.96324 | 106.73278 | 4255 ft | 280 kts | 323° |
| 2026-05-01 08:54 | -5.94955 | 106.71908 | 4744 ft | 280 kts | 305° |
| 2026-05-01 08:55 | -5.93954 | 106.70220 | 5124 ft | 283 kts | 296° |
| 2026-05-01 08:55 | -5.93085 | 106.68444 | 5119 ft | 283 kts | 294° |
| 2026-05-01 08:55 | -5.92266 | 106.66657 | 5117 ft | 281 kts | 293° |
| 2026-05-01 08:55 | -5.91456 | 106.64872 | 5117 ft | 281 kts | 293° |
| 2026-05-01 08:56 | -5.90643 | 106.63091 | 5120 ft | 281 kts | 293° |
| 2026-05-01 08:56 | -5.89816 | 106.61310 | 5120 ft | 281 kts | 295° |
| 2026-05-01 08:56 | -5.88967 | 106.59547 | 5261 ft | 285 kts | 294° |
| 2026-05-01 08:56 | -5.88130 | 106.57750 | 5805 ft | 284 kts | 294° |
| 2026-05-01 08:57 | -5.87296 | 106.55945 | 6258 ft | 287 kts | 294° |
| 2026-05-01 08:57 | -5.86454 | 106.54127 | 6718 ft | 288 kts | 294° |
| 2026-05-01 08:57 | -5.85603 | 106.52295 | 7134 ft | 291 kts | 294° |
| 2026-05-01 08:57 | -5.84742 | 106.50450 | 7585 ft | 293 kts | 294° |
| 2026-05-01 08:58 | -5.83875 | 106.48594 | 8038 ft | 294 kts | 294° |
| 2026-05-01 08:58 | -5.83007 | 106.46736 | 8479 ft | 297 kts | 295° |
| 2026-05-01 08:58 | -5.82124 | 106.44845 | 8944 ft | 298 kts | 295° |
| 2026-05-01 08:58 | -5.81255 | 106.42975 | 9387 ft | 300 kts | 295° |
| 2026-05-01 08:59 | -5.80357 | 106.41042 | 9836 ft | 303 kts | 295° |
| 2026-05-01 08:59 | -5.79461 | 106.39113 | 10188 ft | 308 kts | 295° |
| 2026-05-01 08:59 | -5.78536 | 106.37122 | 10311 ft | 322 kts | 295° |
| 2026-05-01 08:59 | -5.77571 | 106.35048 | 10433 ft | 335 kts | 295° |
| 2026-05-01 09:00 | -5.76580 | 106.32917 | 10554 ft | 347 kts | 295° |
| 2026-05-01 09:00 | -5.75548 | 106.30698 | 10800 ft | 354 kts | 295° |
| 2026-05-01 09:00 | -5.74505 | 106.28453 | 11191 ft | 356 kts | 295° |
| 2026-05-01 09:00 | -5.73453 | 106.26194 | 11597 ft | 358 kts | 295° |
| 2026-05-01 09:01 | -5.72362 | 106.23938 | 11999 ft | 360 kts | 296° |
| 2026-05-01 09:01 | -5.71242 | 106.21679 | 12403 ft | 362 kts | 296° |
| 2026-05-01 09:01 | -5.70113 | 106.19408 | 12786 ft | 364 kts | 296° |
| 2026-05-01 09:01 | -5.68985 | 106.17128 | 13177 ft | 367 kts | 296° |
| 2026-05-01 09:02 | -5.67863 | 106.14851 | 13564 ft | 369 kts | 296° |
| 2026-05-01 09:02 | -5.66711 | 106.12508 | 13917 ft | 371 kts | 296° |
| 2026-05-01 09:02 | -5.65582 | 106.10209 | 14245 ft | 373 kts | 296° |
| 2026-05-01 09:02 | -5.64435 | 106.07873 | 14610 ft | 374 kts | 296° |
| 2026-05-01 09:03 | -5.63280 | 106.05521 | 14954 ft | 377 kts | 296° |
| 2026-05-01 09:03 | -5.62117 | 106.03154 | 15295 ft | 378 kts | 296° |
| 2026-05-01 09:03 | -5.60950 | 106.00778 | 15629 ft | 380 kts | 296° |
| 2026-05-01 09:03 | -5.59818 | 105.98473 | 15944 ft | 382 kts | 296° |
| 2026-05-01 09:04 | -5.58701 | 105.96201 | 16245 ft | 384 kts | 296° |
| 2026-05-01 09:04 | -5.57681 | 105.94124 | 16518 ft | 386 kts | 296° |
| 2026-05-01 09:04 | -5.56648 | 105.92023 | 16808 ft | 388 kts | 296° |
| 2026-05-01 09:04 | -5.55511 | 105.89709 | 17109 ft | 390 kts | 296° |
| 2026-05-01 09:05 | -5.54312 | 105.87270 | 17437 ft | 391 kts | 296° |
| 2026-05-01 09:05 | -5.53543 | 105.85707 | 17628 ft | 393 kts | 296° |
| 2026-05-01 09:05 | -5.53020 | 105.84642 | 17761 ft | 393 kts | 296° |
| 2026-05-01 09:05 | -5.51833 | 105.82228 | 18081 ft | 396 kts | 296° |
| 2026-05-01 09:06 | -5.51120 | 105.80778 | 18234 ft | 397 kts | 296° |
| 2026-05-01 09:06 | -5.49997 | 105.78496 | 18495 ft | 398 kts | 296° |
| 2026-05-01 09:06 | -5.48772 | 105.76007 | 18780 ft | 400 kts | 296° |
| 2026-05-01 09:06 | -5.47535 | 105.73493 | 19060 ft | 402 kts | 296° |
| 2026-05-01 09:07 | -5.46296 | 105.70973 | 19342 ft | 403 kts | 296° |
| 2026-05-01 09:07 | -5.45053 | 105.68448 | 19638 ft | 405 kts | 296° |
| 2026-05-01 09:07 | -5.43805 | 105.65911 | 19906 ft | 407 kts | 297° |
| 2026-05-01 09:07 | -5.42572 | 105.63397 | 20169 ft | 408 kts | 296° |
| 2026-05-01 09:08 | -5.41497 | 105.60744 | 20450 ft | 410 kts | 290° |
| 2026-05-01 09:08 | -5.40505 | 105.58050 | 20722 ft | 412 kts | 291° |
| 2026-05-01 09:08 | -5.39504 | 105.55352 | 21014 ft | 414 kts | 291° |
| 2026-05-01 09:08 | -5.38493 | 105.52639 | 21302 ft | 416 kts | 291° |
| 2026-05-01 09:09 | -5.37479 | 105.49919 | 21570 ft | 418 kts | 291° |
| 2026-05-01 09:09 | -5.36450 | 105.47176 | 21846 ft | 420 kts | 291° |
| 2026-05-01 09:09 | -5.35418 | 105.44429 | 22142 ft | 421 kts | 291° |
| 2026-05-01 09:09 | -5.34384 | 105.41675 | 22416 ft | 423 kts | 291° |
| 2026-05-01 09:10 | -5.33344 | 105.38905 | 22703 ft | 425 kts | 291° |
| 2026-05-01 09:10 | -5.32299 | 105.36120 | 22973 ft | 427 kts | 291° |
| 2026-05-01 09:10 | -5.31265 | 105.33362 | 23239 ft | 429 kts | 291° |
| 2026-05-01 09:10 | -5.30211 | 105.30552 | 23500 ft | 431 kts | 291° |
| 2026-05-01 09:11 | -5.29155 | 105.27736 | 23739 ft | 432 kts | 291° |
| 2026-05-01 09:11 | -5.28092 | 105.24905 | 24006 ft | 434 kts | 291° |
| 2026-05-01 09:11 | -5.27030 | 105.22073 | 24232 ft | 435 kts | 291° |
| 2026-05-01 09:11 | -5.25939 | 105.19230 | 24468 ft | 437 kts | 294° |
| 2026-05-01 09:12 | -5.24637 | 105.16481 | 24694 ft | 438 kts | 297° |
| 2026-05-01 09:12 | -5.23298 | 105.13725 | 24905 ft | 439 kts | 296° |
| 2026-05-01 09:12 | -5.21965 | 105.10961 | 25137 ft | 441 kts | 296° |
| 2026-05-01 09:12 | -5.20632 | 105.08186 | 25374 ft | 443 kts | 296° |
| 2026-05-01 09:13 | -5.19311 | 105.05435 | 25606 ft | 444 kts | 296° |
| 2026-05-01 09:13 | -5.17969 | 105.02641 | 25839 ft | 446 kts | 296° |
| 2026-05-01 09:13 | -5.16621 | 104.99836 | 26061 ft | 447 kts | 296° |
| 2026-05-01 09:13 | -5.15266 | 104.97018 | 26294 ft | 449 kts | 296° |
| 2026-05-01 09:14 | -5.13908 | 104.94192 | 26528 ft | 451 kts | 296° |
| 2026-05-01 09:14 | -5.12545 | 104.91358 | 26755 ft | 452 kts | 296° |
| 2026-05-01 09:14 | -5.11180 | 104.88521 | 26977 ft | 454 kts | 296° |
| 2026-05-01 09:14 | -5.09802 | 104.85656 | 27233 ft | 455 kts | 296° |
| 2026-05-01 09:15 | -5.08664 | 104.83293 | 27398 ft | 457 kts | 296° |
| 2026-05-01 09:15 | -5.07039 | 104.79916 | 27660 ft | 459 kts | 296° |
| 2026-05-01 09:15 | -5.05671 | 104.77073 | 27889 ft | 460 kts | 296° |
| 2026-05-01 09:15 | -5.04280 | 104.74183 | 28098 ft | 462 kts | 296° |
| 2026-05-01 09:16 | -5.02880 | 104.71276 | 28332 ft | 463 kts | 296° |
| 2026-05-01 09:16 | -5.01478 | 104.68362 | 28535 ft | 464 kts | 296° |
| 2026-05-01 09:16 | -5.00074 | 104.65444 | 28756 ft | 466 kts | 296° |
| 2026-05-01 09:17 | -4.97243 | 104.59569 | 29179 ft | 469 kts | 296° |
| 2026-05-01 09:17 | -4.95821 | 104.56618 | 29392 ft | 470 kts | 296° |
| 2026-05-01 09:17 | -4.92968 | 104.50697 | 29805 ft | 473 kts | 296° |
| 2026-05-01 09:18 | -4.91535 | 104.47724 | 30020 ft | 475 kts | 296° |
| 2026-05-01 09:18 | -4.88645 | 104.41798 | 30420 ft | 476 kts | 297° |
| 2026-05-01 09:19 | -4.85709 | 104.35831 | 30827 ft | 479 kts | 297° |
| 2026-05-01 09:19 | -4.84234 | 104.32828 | 31037 ft | 480 kts | 297° |
| 2026-05-01 09:19 | -4.82758 | 104.29818 | 31223 ft | 481 kts | 297° |
| 2026-05-01 09:20 | -4.79797 | 104.23783 | 31630 ft | 484 kts | 297° |
| 2026-05-01 09:20 | -4.76820 | 104.17714 | 32026 ft | 486 kts | 297° |
| 2026-05-01 09:21 | -4.73848 | 104.11659 | 32352 ft | 488 kts | 297° |
| 2026-05-01 09:21 | -4.72349 | 104.08606 | 32483 ft | 489 kts | 297° |
| 2026-05-01 09:21 | -4.69340 | 104.02477 | 32741 ft | 491 kts | 297° |
| 2026-05-01 09:22 | -4.66314 | 103.96317 | 32978 ft | 493 kts | 297° |
| 2026-05-01 09:22 | -4.63285 | 103.90150 | 33152 ft | 494 kts | 297° |
| 2026-05-01 09:23 | -4.58723 | 103.80867 | 33412 ft | 495 kts | 297° |
| 2026-05-01 09:24 | -4.55704 | 103.74723 | 33613 ft | 495 kts | 297° |
| 2026-05-01 09:24 | -4.54184 | 103.71632 | 33710 ft | 495 kts | 297° |
| 2026-05-01 09:24 | -4.51142 | 103.65447 | 33876 ft | 494 kts | 297° |
| 2026-05-01 09:25 | -4.48104 | 103.59270 | 33890 ft | 494 kts | 297° |
| 2026-05-01 09:26 | -4.43543 | 103.50001 | 33898 ft | 495 kts | 297° |
| 2026-05-01 09:26 | -4.38996 | 103.40762 | 33901 ft | 496 kts | 297° |
| 2026-05-01 09:27 | -4.34416 | 103.31460 | 33900 ft | 497 kts | 297° |
| 2026-05-01 09:28 | -4.31359 | 103.25252 | 33899 ft | 498 kts | 297° |
| 2026-05-01 09:28 | -4.28296 | 103.19034 | 33896 ft | 497 kts | 297° |
| 2026-05-01 09:29 | -4.23726 | 103.09761 | 33889 ft | 497 kts | 297° |
| 2026-05-01 09:30 | -4.19704 | 103.01604 | 33886 ft | 501 kts | 297° |
| 2026-05-01 09:30 | -4.15344 | 102.92764 | 33881 ft | 503 kts | 297° |
| 2026-05-01 09:31 | -4.12259 | 102.86510 | 33874 ft | 504 kts | 297° |
| 2026-05-01 09:32 | -4.07586 | 102.77039 | 33868 ft | 506 kts | 297° |
| 2026-05-01 09:32 | -4.02926 | 102.67595 | 33860 ft | 502 kts | 297° |
| 2026-05-01 09:33 | -3.99827 | 102.61321 | 33858 ft | 503 kts | 297° |
| 2026-05-01 09:34 | -3.95196 | 102.51942 | 33852 ft | 500 kts | 297° |
| 2026-05-01 09:34 | -3.90601 | 102.42642 | 33846 ft | 499 kts | 297° |
| 2026-05-01 09:35 | -3.85977 | 102.33287 | 33844 ft | 499 kts | 297° |
| 2026-05-01 09:36 | -3.82893 | 102.27065 | 33843 ft | 499 kts | 297° |
| 2026-05-01 09:36 | -3.79829 | 102.20888 | 33839 ft | 499 kts | 297° |
| 2026-05-01 09:37 | -3.76741 | 102.14660 | 33842 ft | 499 kts | 297° |
| 2026-05-01 09:37 | -3.72105 | 102.05314 | 33839 ft | 500 kts | 297° |
| 2026-05-01 09:38 | -3.67465 | 101.95963 | 33834 ft | 500 kts | 297° |
| 2026-05-01 09:39 | -3.62840 | 101.86645 | 33834 ft | 501 kts | 297° |
| 2026-05-01 09:39 | -3.59739 | 101.80398 | 33833 ft | 501 kts | 297° |
| 2026-05-01 09:40 | -3.55085 | 101.71026 | 33835 ft | 502 kts | 298° |
| 2026-05-01 09:41 | -3.51978 | 101.64771 | 33842 ft | 502 kts | 297° |
| 2026-05-01 09:41 | -3.47316 | 101.55388 | 33844 ft | 502 kts | 297° |
| 2026-05-01 09:42 | -3.44231 | 101.49180 | 33845 ft | 502 kts | 297° |
| 2026-05-01 09:43 | -3.38016 | 101.36676 | 33843 ft | 501 kts | 298° |
| 2026-05-01 09:43 | -3.34915 | 101.30440 | 33848 ft | 501 kts | 298° |
| 2026-05-01 09:44 | -3.30263 | 101.21087 | 33844 ft | 500 kts | 298° |
| 2026-05-01 09:45 | -3.27185 | 101.14901 | 33838 ft | 500 kts | 298° |
| 2026-05-01 09:45 | -3.22530 | 101.05547 | 33840 ft | 500 kts | 298° |
| 2026-05-01 09:46 | -3.19429 | 100.99315 | 33838 ft | 501 kts | 298° |
| 2026-05-01 09:46 | -3.16322 | 100.93074 | 33840 ft | 501 kts | 298° |
| 2026-05-01 09:47 | -3.13214 | 100.86832 | 33838 ft | 501 kts | 298° |
| 2026-05-01 09:47 | -3.10105 | 100.80589 | 33841 ft | 501 kts | 298° |
| 2026-05-01 09:48 | -3.07014 | 100.74383 | 33840 ft | 502 kts | 297° |
| 2026-05-01 09:48 | -3.03903 | 100.68138 | 33844 ft | 502 kts | 297° |
| 2026-05-01 09:49 | -3.00790 | 100.61890 | 33850 ft | 502 kts | 297° |
| 2026-05-01 09:49 | -2.97675 | 100.55639 | 33849 ft | 502 kts | 297° |
| 2026-05-01 09:50 | -2.94561 | 100.49391 | 33847 ft | 502 kts | 298° |
| 2026-05-01 09:50 | -2.91452 | 100.43155 | 33847 ft | 502 kts | 298° |
| 2026-05-01 09:51 | -2.88350 | 100.36934 | 33850 ft | 502 kts | 297° |
| 2026-05-01 09:51 | -2.85237 | 100.30691 | 33851 ft | 502 kts | 297° |
| 2026-05-01 09:52 | -2.82115 | 100.24432 | 33849 ft | 502 kts | 297° |
| 2026-05-01 09:52 | -2.78997 | 100.18181 | 33851 ft | 502 kts | 297° |
| 2026-05-01 09:53 | -2.75880 | 100.11933 | 33852 ft | 502 kts | 297° |
| 2026-05-01 09:53 | -2.72783 | 100.05728 | 33851 ft | 502 kts | 297° |
| 2026-05-01 09:54 | -2.69663 | 99.99476 | 33851 ft | 502 kts | 297° |
| 2026-05-01 09:54 | -2.66544 | 99.93226 | 33854 ft | 502 kts | 297° |
| 2026-05-01 09:55 | -2.63948 | 99.88026 | 33853 ft | 502 kts | 297° |
| 2026-05-01 09:55 | -2.60299 | 99.80717 | 33852 ft | 503 kts | 298° |
| 2026-05-01 09:56 | -2.57706 | 99.75526 | 33853 ft | 503 kts | 298° |
| 2026-05-01 09:56 | -2.54075 | 99.68254 | 33855 ft | 503 kts | 298° |
| 2026-05-01 09:57 | -2.51479 | 99.63057 | 33855 ft | 503 kts | 298° |
| 2026-05-01 09:57 | -2.48353 | 99.56800 | 33854 ft | 503 kts | 298° |
| 2026-05-01 09:58 | -2.45297 | 99.50510 | 33855 ft | 503 kts | 296° |
| 2026-05-01 09:58 | -2.42340 | 99.44176 | 33855 ft | 503 kts | 296° |
| 2026-05-01 09:59 | -2.39386 | 99.37889 | 33857 ft | 503 kts | 296° |
| 2026-05-01 09:59 | -2.36398 | 99.31560 | 33854 ft | 503 kts | 296° |
| 2026-05-01 10:00 | -2.33411 | 99.25241 | 33853 ft | 503 kts | 296° |
| 2026-05-01 10:00 | -2.30411 | 99.18896 | 33853 ft | 506 kts | 296° |
| 2026-05-01 10:01 | -2.27395 | 99.12516 | 33855 ft | 508 kts | 296° |
| 2026-05-01 10:01 | -2.24388 | 99.06154 | 33853 ft | 510 kts | 296° |
| 2026-05-01 10:02 | -2.21358 | 98.99744 | 33854 ft | 510 kts | 296° |
| 2026-05-01 10:02 | -2.18326 | 98.93333 | 33851 ft | 509 kts | 296° |
| 2026-05-01 10:03 | -2.15305 | 98.86944 | 33854 ft | 508 kts | 296° |
| 2026-05-01 10:03 | -2.12282 | 98.80555 | 33852 ft | 508 kts | 296° |
| 2026-05-01 10:04 | -2.09284 | 98.74218 | 33859 ft | 507 kts | 296° |
| 2026-05-01 10:04 | -2.06269 | 98.67846 | 33866 ft | 507 kts | 296° |
| 2026-05-01 10:05 | -2.03257 | 98.61484 | 33863 ft | 506 kts | 296° |
| 2026-05-01 10:05 | -2.00246 | 98.55122 | 33858 ft | 506 kts | 296° |
| 2026-05-01 10:06 | -1.97262 | 98.48817 | 33859 ft | 505 kts | 295° |
| 2026-05-01 10:06 | -1.94254 | 98.42462 | 33853 ft | 505 kts | 295° |
| 2026-05-01 10:07 | -1.91252 | 98.36119 | 33857 ft | 505 kts | 295° |
| 2026-05-01 10:07 | -1.88245 | 98.29769 | 33857 ft | 505 kts | 295° |
| 2026-05-01 10:08 | -1.83732 | 98.20237 | 33859 ft | 506 kts | 295° |
| 2026-05-01 10:09 | -1.80745 | 98.13930 | 33858 ft | 506 kts | 295° |
| 2026-05-01 10:09 | -1.77731 | 98.07567 | 33859 ft | 506 kts | 295° |
| 2026-05-01 10:10 | -1.74720 | 98.01211 | 33860 ft | 506 kts | 295° |
| 2026-05-01 10:10 | -1.70198 | 97.91665 | 33859 ft | 507 kts | 295° |
| 2026-05-01 10:11 | -1.67182 | 97.85298 | 33858 ft | 507 kts | 295° |
| 2026-05-01 10:11 | -1.64183 | 97.78969 | 33865 ft | 508 kts | 295° |
| 2026-05-01 10:12 | -1.61157 | 97.72584 | 33866 ft | 508 kts | 295° |
| 2026-05-01 10:13 | -1.56581 | 97.63042 | 33869 ft | 508 kts | 296° |
| 2026-05-01 10:13 | -1.53470 | 97.56702 | 33869 ft | 508 kts | 296° |
| 2026-05-01 10:14 | -1.48840 | 97.47224 | 33871 ft | 508 kts | 296° |
| 2026-05-01 10:14 | -1.45843 | 97.41080 | 33874 ft | 508 kts | 296° |
| 2026-05-01 10:15 | -1.42751 | 97.34742 | 33871 ft | 508 kts | 296° |
| 2026-05-01 10:15 | -1.39656 | 97.28399 | 33876 ft | 507 kts | 296° |
| 2026-05-01 10:16 | -1.36572 | 97.22080 | 33873 ft | 507 kts | 296° |
| 2026-05-01 10:17 | -1.32066 | 97.12847 | 33871 ft | 506 kts | 296° |
| 2026-05-01 10:17 | -1.27438 | 97.03364 | 33871 ft | 506 kts | 296° |
| 2026-05-01 10:18 | -1.22817 | 96.93897 | 33869 ft | 505 kts | 296° |
| 2026-05-01 10:19 | -1.19740 | 96.87594 | 33865 ft | 505 kts | 296° |
| 2026-05-01 10:19 | -1.16660 | 96.81286 | 33861 ft | 505 kts | 296° |
| 2026-05-01 10:20 | -1.12064 | 96.71871 | 33860 ft | 505 kts | 296° |
| 2026-05-01 10:20 | -1.08987 | 96.65569 | 33859 ft | 505 kts | 296° |
| 2026-05-01 10:21 | -1.04362 | 96.56097 | 33853 ft | 506 kts | 296° |
| 2026-05-01 10:22 | -0.99748 | 96.46648 | 33862 ft | 508 kts | 296° |
| 2026-05-01 10:23 | -0.95096 | 96.37123 | 33864 ft | 508 kts | 296° |
| 2026-05-01 10:23 | -0.90456 | 96.27622 | 33861 ft | 507 kts | 296° |
| 2026-05-01 10:24 | -0.84286 | 96.14992 | 33863 ft | 507 kts | 296° |
| 2026-05-01 10:25 | -0.78103 | 96.02333 | 33861 ft | 507 kts | 296° |
| 2026-05-01 10:26 | -0.75015 | 95.96012 | 33860 ft | 506 kts | 296° |
| 2026-05-01 10:27 | -0.68853 | 95.83399 | 33858 ft | 506 kts | 296° |
| 2026-05-01 10:28 | -0.64221 | 95.73919 | 33863 ft | 506 kts | 296° |
| 2026-05-01 10:28 | -0.59599 | 95.64459 | 33861 ft | 506 kts | 296° |
| 2026-05-01 10:29 | -0.54989 | 95.55025 | 33860 ft | 506 kts | 296° |
| 2026-05-01 10:30 | -0.48813 | 95.42388 | 33862 ft | 506 kts | 296° |
| 2026-05-01 10:31 | -0.42656 | 95.29790 | 33859 ft | 507 kts | 296° |
| 2026-05-01 10:32 | -0.37995 | 95.20253 | 33861 ft | 507 kts | 296° |
| 2026-05-01 10:33 | -0.31824 | 95.07628 | 33863 ft | 507 kts | 296° |
| 2026-05-01 10:34 | -0.27175 | 94.98117 | 33867 ft | 507 kts | 296° |
| 2026-05-01 10:34 | -0.24085 | 94.91795 | 33867 ft | 507 kts | 296° |
| 2026-05-01 10:35 | -0.19432 | 94.82277 | 33868 ft | 507 kts | 296° |
| 2026-05-01 10:35 | -0.16360 | 94.75990 | 33864 ft | 507 kts | 296° |
| 2026-05-01 10:36 | -0.11715 | 94.66488 | 33864 ft | 507 kts | 296° |
| 2026-05-01 10:37 | -0.08617 | 94.60152 | 33864 ft | 507 kts | 296° |
| 2026-05-01 10:37 | -0.03973 | 94.50650 | 33865 ft | 507 kts | 296° |
| 2026-05-01 10:38 | -0.00874 | 94.44310 | 33865 ft | 508 kts | 296° |
| 2026-05-01 10:38 | 0.02227 | 94.37966 | 33866 ft | 508 kts | 296° |
| 2026-05-01 10:39 | 0.05301 | 94.31677 | 33865 ft | 508 kts | 297° |
| 2026-05-01 10:39 | 0.08404 | 94.25331 | 33864 ft | 508 kts | 297° |
| 2026-05-01 10:40 | 0.11504 | 94.18987 | 33865 ft | 508 kts | 297° |
| 2026-05-01 10:40 | 0.14602 | 94.12650 | 33865 ft | 508 kts | 297° |
| 2026-05-01 10:41 | 0.17703 | 94.06306 | 33864 ft | 508 kts | 297° |
| 2026-05-01 10:42 | 0.22331 | 93.96838 | 33867 ft | 508 kts | 297° |
| 2026-05-01 10:42 | 0.25431 | 93.90495 | 33866 ft | 508 kts | 297° |
| 2026-05-01 10:43 | 0.28533 | 93.84149 | 33865 ft | 508 kts | 297° |
| 2026-05-01 10:43 | 0.31634 | 93.77812 | 33878 ft | 508 kts | 296° |
| 2026-05-01 10:44 | 0.34714 | 93.71506 | 33875 ft | 508 kts | 296° |
| 2026-05-01 10:44 | 0.37814 | 93.65160 | 33872 ft | 508 kts | 296° |
| 2026-05-01 10:45 | 0.40910 | 93.58811 | 33846 ft | 508 kts | 296° |
| 2026-05-01 10:45 | 0.44006 | 93.52463 | 33846 ft | 509 kts | 296° |
| 2026-05-01 10:46 | 0.47109 | 93.46100 | 33846 ft | 510 kts | 296° |
| 2026-05-01 10:46 | 0.50195 | 93.39773 | 33849 ft | 510 kts | 296° |
| 2026-05-01 10:47 | 0.53307 | 93.33393 | 33868 ft | 511 kts | 296° |
| 2026-05-01 10:47 | 0.56422 | 93.27008 | 33872 ft | 511 kts | 296° |
| 2026-05-01 10:48 | 0.59537 | 93.20621 | 33867 ft | 511 kts | 296° |
| 2026-05-01 10:48 | 0.62651 | 93.14235 | 33867 ft | 511 kts | 296° |
| 2026-05-01 10:49 | 0.65762 | 93.07857 | 33868 ft | 511 kts | 296° |
| 2026-05-01 10:49 | 0.68849 | 93.01525 | 33868 ft | 510 kts | 296° |
| 2026-05-01 10:50 | 0.71956 | 92.95154 | 33869 ft | 510 kts | 296° |
| 2026-05-01 10:50 | 0.75060 | 92.88789 | 33870 ft | 509 kts | 296° |
| 2026-05-01 10:51 | 0.78158 | 92.82434 | 33868 ft | 509 kts | 296° |
| 2026-05-01 10:51 | 0.81240 | 92.76115 | 33866 ft | 509 kts | 296° |
| 2026-05-01 10:52 | 0.84338 | 92.69761 | 33865 ft | 509 kts | 296° |
| 2026-05-01 10:52 | 0.87435 | 92.63408 | 33861 ft | 509 kts | 296° |
| 2026-05-01 10:53 | 0.90532 | 92.57055 | 33859 ft | 509 kts | 296° |
| 2026-05-01 10:53 | 0.93635 | 92.50688 | 33862 ft | 509 kts | 296° |
| 2026-05-01 10:54 | 0.96730 | 92.44338 | 33863 ft | 509 kts | 296° |
| 2026-05-01 10:54 | 0.99833 | 92.37972 | 33864 ft | 509 kts | 296° |
| 2026-05-01 10:55 | 1.02912 | 92.31644 | 33863 ft | 509 kts | 296° |
| 2026-05-01 10:55 | 1.06017 | 92.25282 | 33862 ft | 510 kts | 296° |
| 2026-05-01 10:56 | 1.09158 | 92.18839 | 33865 ft | 511 kts | 296° |
| 2026-05-01 10:56 | 1.12235 | 92.12524 | 33863 ft | 511 kts | 296° |
| 2026-05-01 10:57 | 1.15333 | 92.06165 | 33868 ft | 511 kts | 296° |
| 2026-05-01 10:57 | 1.18447 | 91.99775 | 33833 ft | 512 kts | 296° |
| 2026-05-01 10:58 | 1.21599 | 91.93406 | 33835 ft | 511 kts | 297° |
| 2026-05-01 10:58 | 1.24772 | 91.87052 | 33853 ft | 511 kts | 297° |
| 2026-05-01 10:59 | 1.27921 | 91.80728 | 33852 ft | 511 kts | 297° |
| 2026-05-01 10:59 | 1.31080 | 91.74375 | 33857 ft | 511 kts | 297° |
| 2026-05-01 11:00 | 1.34244 | 91.68010 | 33854 ft | 511 kts | 297° |
| 2026-05-01 11:00 | 1.37403 | 91.61652 | 33837 ft | 511 kts | 297° |
| 2026-05-01 11:01 | 1.40566 | 91.55288 | 33831 ft | 511 kts | 297° |
| 2026-05-01 11:01 | 1.43708 | 91.48968 | 33835 ft | 512 kts | 297° |
| 2026-05-01 11:02 | 1.46870 | 91.42604 | 33842 ft | 512 kts | 297° |
| 2026-05-01 11:02 | 1.50040 | 91.36227 | 33844 ft | 512 kts | 297° |
| 2026-05-01 11:03 | 1.53193 | 91.29881 | 33840 ft | 513 kts | 297° |
| 2026-05-01 11:03 | 1.56365 | 91.23496 | 33840 ft | 513 kts | 297° |
| 2026-05-01 11:04 | 1.59544 | 91.17097 | 33852 ft | 514 kts | 297° |
| 2026-05-01 11:04 | 1.62721 | 91.10698 | 33861 ft | 514 kts | 296° |
| 2026-05-01 11:05 | 1.65899 | 91.04302 | 33865 ft | 514 kts | 296° |
| 2026-05-01 11:05 | 1.69082 | 90.97898 | 33852 ft | 514 kts | 296° |
| 2026-05-01 11:06 | 1.72237 | 90.91546 | 33843 ft | 514 kts | 296° |
| 2026-05-01 11:06 | 1.75416 | 90.85143 | 33836 ft | 514 kts | 296° |
| 2026-05-01 11:07 | 1.80175 | 90.75558 | 33863 ft | 513 kts | 296° |